createdAt,value
2023-01-12T00:04:03.721Z,16.21
2023-01-12T00:14:05.998Z,16.17
2023-01-12T00:24:08.679Z,16.20
2023-01-12T00:34:10.092Z,16.18
2023-01-12T00:44:30.075Z,16.18
2023-01-12T00:54:32.514Z,16.18
2023-01-12T01:04:36.872Z,16.20
2023-01-12T01:14:38.269Z,16.18
2023-01-12T01:24:40.742Z,16.20
2023-01-12T01:34:42.183Z,16.18
2023-01-12T01:44:43.790Z,16.23
2023-01-12T01:55:09.016Z,16.20
2023-01-12T02:05:10.569Z,16.20
2023-01-12T02:15:30.547Z,16.20
2023-01-12T02:25:47.280Z,16.20
2023-01-12T02:35:54.804Z,16.18
2023-01-12T02:46:21.769Z,16.17
2023-01-12T02:56:25.290Z,16.15
2023-01-12T03:06:37.282Z,16.14
2023-01-12T03:16:38.736Z,16.11
2023-01-12T03:26:43.025Z,16.10
2023-01-12T03:36:57.426Z,16.08
2023-01-12T03:47:01.710Z,16.05
2023-01-12T03:57:03.208Z,16.02
2023-01-12T04:07:04.584Z,15.98
2023-01-12T04:17:06.599Z,15.96
2023-01-12T04:27:08.242Z,15.92
2023-01-12T04:37:09.652Z,15.88
2023-01-12T04:47:11.566Z,15.88
2023-01-12T04:57:12.937Z,15.86
2023-01-12T05:07:14.304Z,15.87
2023-01-12T05:17:16.050Z,15.86
2023-01-12T05:27:18.756Z,16.09
2023-01-12T05:37:20.141Z,16.34
2023-01-12T05:47:21.539Z,16.59
2023-01-12T05:57:22.922Z,16.85
2023-01-12T06:07:24.294Z,17.04
2023-01-12T06:17:25.827Z,17.21
2023-01-12T06:27:30.594Z,17.27
2023-01-12T06:37:31.962Z,17.31
2023-01-12T06:47:33.558Z,17.30
2023-01-12T06:57:35.021Z,17.27
2023-01-12T07:07:39.887Z,17.22
2023-01-12T07:17:41.501Z,17.30
2023-01-12T07:27:50.001Z,17.38
2023-01-12T07:37:53.655Z,17.49
2023-01-12T07:47:55.128Z,17.53
2023-01-12T07:58:00.617Z,17.51
2023-01-12T08:08:03.536Z,17.44
2023-01-12T08:18:07.784Z,17.45
2023-01-12T08:28:09.256Z,17.53
2023-01-12T08:38:10.632Z,17.63
2023-01-12T08:48:12.106Z,17.71
2023-01-12T08:58:13.518Z,17.73
2023-01-12T09:08:14.910Z,17.68
2023-01-12T09:18:16.276Z,17.74
2023-01-12T09:28:17.698Z,17.79
2023-01-12T09:38:19.065Z,17.83
2023-01-12T09:48:23.059Z,17.88
2023-01-12T09:59:07.649Z,17.93
2023-01-12T10:09:19.487Z,18.00
2023-01-12T10:19:27.876Z,18.01
2023-01-12T10:29:30.717Z,18.05
2023-01-12T10:39:38.585Z,18.06
2023-01-12T10:49:39.965Z,18.08
2023-01-12T10:59:41.332Z,18.14
2023-01-12T11:09:43.139Z,18.18
2023-01-12T11:19:44.606Z,18.21
2023-01-12T11:29:54.520Z,18.22
2023-01-12T11:40:25.721Z,18.21
2023-01-12T11:50:30.977Z,18.24
2023-01-12T12:00:58.858Z,18.25
2023-01-12T12:11:32.236Z,18.29
2023-01-12T12:21:39.635Z,18.32
2023-01-12T12:32:02.421Z,18.33
2023-01-12T12:43:00.021Z,18.35
2023-01-12T12:53:22.898Z,18.35
2023-01-12T13:03:39.342Z,18.36
2023-01-12T13:13:57.868Z,18.38
2023-01-12T13:24:11.641Z,18.33
2023-01-12T13:34:31.538Z,18.28
2023-01-12T13:44:37.613Z,18.24
2023-01-12T13:54:48.081Z,18.19
2023-01-12T14:04:53.803Z,18.11
2023-01-12T14:15:37.152Z,18.04
2023-01-12T14:25:38.628Z,17.96
2023-01-12T14:35:43.134Z,17.91
2023-01-12T14:46:12.997Z,17.89
2023-01-12T14:56:22.921Z,17.86
2023-01-12T15:06:24.289Z,17.81
2023-01-12T15:16:44.432Z,17.77
2023-01-12T15:26:46.806Z,17.72
2023-01-12T15:36:50.762Z,17.68
2023-01-12T15:46:52.607Z,17.60
2023-01-12T15:56:54.028Z,17.59
2023-01-12T16:06:55.725Z,17.54
2023-01-12T16:16:57.119Z,17.49
2023-01-12T16:26:58.553Z,17.48
2023-01-12T16:37:00.903Z,17.42
2023-01-12T16:47:02.789Z,17.40
2023-01-12T16:57:04.172Z,17.39
2023-01-12T17:07:05.978Z,17.38
2023-01-12T17:17:08.490Z,17.35
2023-01-12T17:27:10.144Z,17.33
2023-01-12T17:37:11.634Z,17.30
2023-01-12T17:47:13.202Z,17.26
2023-01-12T17:57:14.749Z,17.25
2023-01-12T18:07:16.189Z,17.24
2023-01-12T18:17:17.907Z,17.19
2023-01-12T18:27:19.458Z,17.16
2023-01-12T18:37:21.000Z,17.14
2023-01-12T18:47:40.934Z,17.11
2023-01-12T18:57:42.332Z,17.04
2023-01-12T19:08:02.798Z,17.04
2023-01-12T19:18:04.279Z,16.99
2023-01-12T19:28:24.501Z,16.99
2023-01-12T19:38:25.940Z,16.93
2023-01-12T19:48:27.665Z,16.92
2023-01-12T19:58:29.100Z,16.92
2023-01-12T20:08:31.942Z,16.90
2023-01-12T20:18:33.342Z,16.87
2023-01-12T20:28:35.095Z,16.84
2023-01-12T20:38:36.490Z,16.82
2023-01-12T20:48:40.154Z,16.82
2023-01-12T20:58:41.706Z,16.81
2023-01-12T21:08:43.677Z,16.80
2023-01-12T21:18:45.073Z,16.81
2023-01-12T21:28:46.513Z,16.77
2023-01-12T21:38:51.289Z,16.75
2023-01-12T21:48:52.669Z,16.78
2023-01-12T21:58:54.047Z,16.74
2023-01-12T22:08:55.437Z,16.76
2023-01-12T22:18:56.849Z,16.76
2023-01-12T22:28:58.266Z,16.75
2023-01-12T22:38:59.650Z,16.75
2023-01-12T22:49:01.291Z,16.73
2023-01-12T22:59:02.945Z,16.70
2023-01-12T23:09:04.346Z,16.67
2023-01-12T23:19:05.692Z,16.67
2023-01-12T23:29:08.152Z,16.63
2023-01-12T23:39:10.424Z,16.61
2023-01-12T23:49:11.984Z,16.63
2023-01-12T23:59:13.638Z,16.58
